createdAt,value
2022-09-17T00:01:28.370Z,13.30
2022-09-17T00:04:00.237Z,13.10
2022-09-17T00:06:28.650Z,13.10
2022-09-17T00:08:56.753Z,13.10
2022-09-17T00:11:27.247Z,13.00
2022-09-17T00:13:55.810Z,12.90
2022-09-17T00:16:31.133Z,12.90
2022-09-17T00:18:59.967Z,12.90
2022-09-17T00:21:28.550Z,12.90
2022-09-17T00:23:57.646Z,13.00
2022-09-17T00:26:25.962Z,13.00
2022-09-17T00:28:55.354Z,13.10
2022-09-17T00:31:24.093Z,13.10
2022-09-17T00:33:53.803Z,13.10
2022-09-17T00:36:22.232Z,13.10
2022-09-17T00:38:51.213Z,13.00
2022-09-17T00:41:19.755Z,13.10
2022-09-17T00:43:52.442Z,13.20
2022-09-17T00:46:31.976Z,13.30
2022-09-17T00:49:05.533Z,13.30
2022-09-17T00:51:38.112Z,13.40
2022-09-17T00:54:08.635Z,13.40
2022-09-17T00:56:37.959Z,13.30
2022-09-17T00:59:06.484Z,13.30
2022-09-17T01:01:35.029Z,13.30
2022-09-17T01:04:05.155Z,13.30
2022-09-17T01:06:35.671Z,13.30
2022-09-17T01:09:26.385Z,13.40
2022-09-17T01:12:18.641Z,13.40
2022-09-17T01:15:01.678Z,13.40
2022-09-17T01:17:36.110Z,13.30
2022-09-17T01:20:31.674Z,13.30
2022-09-17T01:23:23.290Z,13.40
2022-09-17T01:26:03.250Z,13.50
2022-09-17T01:28:42.094Z,13.50
2022-09-17T01:31:29.807Z,13.50
2022-09-17T01:34:04.548Z,13.50
2022-09-17T01:36:47.600Z,13.40
2022-09-17T01:39:26.478Z,13.20
2022-09-17T01:41:59.583Z,13.10
2022-09-17T01:44:33.390Z,13.00
2022-09-17T01:47:10.347Z,13.00
2022-09-17T01:49:40.107Z,13.00
2022-09-17T01:52:11.224Z,13.00
2022-09-17T01:54:43.779Z,13.00
2022-09-17T01:57:18.319Z,13.00
2022-09-17T01:59:50.266Z,13.00
2022-09-17T02:02:27.514Z,13.00
2022-09-17T02:05:00.865Z,13.10
2022-09-17T02:07:29.903Z,13.10
2022-09-17T02:10:03.731Z,13.10
2022-09-17T02:12:36.824Z,13.00
2022-09-17T02:15:10.762Z,13.00
2022-09-17T02:17:45.500Z,13.10
2022-09-17T02:20:14.355Z,13.10
2022-09-17T02:22:48.210Z,13.20
2022-09-17T02:25:21.559Z,13.20
2022-09-17T02:27:57.682Z,13.30
2022-09-17T02:30:25.799Z,13.20
2022-09-17T02:32:55.186Z,13.10
2022-09-17T02:35:23.342Z,13.10
2022-09-17T02:37:53.091Z,13.10
2022-09-17T02:40:25.796Z,13.00
2022-09-17T02:43:03.870Z,13.10
2022-09-17T02:45:46.085Z,13.00
2022-09-17T02:48:28.607Z,13.00
2022-09-17T02:51:14.911Z,13.00
2022-09-17T02:53:52.941Z,13.00
2022-09-17T02:56:33.955Z,12.90
2022-09-17T02:59:11.271Z,12.90
2022-09-17T03:01:44.308Z,12.90
2022-09-17T03:04:17.277Z,12.90
2022-09-17T03:06:47.515Z,12.90
2022-09-17T03:09:16.060Z,12.80
2022-09-17T03:11:44.248Z,12.90
2022-09-17T03:14:12.085Z,13.00
2022-09-17T03:16:39.988Z,13.10
2022-09-17T03:19:08.115Z,13.20
2022-09-17T03:21:37.387Z,13.20
2022-09-17T03:24:05.635Z,13.20
2022-09-17T03:26:33.461Z,13.30
2022-09-17T03:29:01.574Z,13.30
2022-09-17T03:31:29.791Z,13.30
2022-09-17T03:33:58.618Z,13.30
2022-09-17T03:36:26.799Z,13.20
2022-09-17T03:38:57.269Z,13.20
2022-09-17T03:41:26.129Z,13.20
2022-09-17T03:43:54.290Z,13.30
2022-09-17T03:46:22.629Z,13.30
2022-09-17T03:48:50.819Z,13.40
2022-09-17T03:51:18.649Z,13.30
2022-09-17T03:53:46.493Z,13.30
2022-09-17T03:56:16.132Z,13.40
2022-09-17T03:58:43.965Z,13.40
2022-09-17T04:01:12.365Z,13.40
2022-09-17T04:03:40.206Z,13.40
2022-09-17T04:06:08.223Z,13.30
2022-09-17T04:08:36.584Z,13.30
2022-09-17T04:11:04.413Z,13.40
2022-09-17T04:13:33.574Z,13.40
2022-09-17T04:16:01.487Z,13.50
2022-09-17T04:18:29.445Z,13.50
2022-09-17T04:20:57.415Z,13.50
2022-09-17T04:23:25.367Z,13.50
2022-09-17T04:25:53.593Z,13.50
2022-09-17T04:28:21.439Z,13.60
2022-09-17T04:30:50.895Z,13.60
2022-09-17T04:33:18.893Z,13.50
2022-09-17T04:35:46.764Z,13.50
2022-09-17T04:38:18.316Z,13.50
2022-09-17T04:40:46.897Z,13.50
2022-09-17T04:43:15.293Z,13.50
2022-09-17T04:45:43.114Z,13.60
2022-09-17T04:48:12.311Z,13.60
2022-09-17T04:50:40.139Z,13.60
2022-09-17T04:53:08.041Z,13.50
2022-09-17T04:55:35.908Z,13.40
2022-09-17T04:58:04.403Z,13.40
2022-09-17T05:00:32.317Z,13.40
2022-09-17T05:03:00.245Z,13.40
2022-09-17T05:05:29.477Z,13.40
2022-09-17T05:07:57.489Z,13.30
2022-09-17T05:10:25.539Z,13.30
2022-09-17T05:12:55.025Z,13.30
2022-09-17T05:15:23.352Z,13.20
2022-09-17T05:17:51.327Z,13.30
2022-09-17T05:20:19.261Z,13.30
2022-09-17T05:22:51.246Z,13.30
2022-09-17T05:25:23.958Z,13.30
2022-09-17T05:27:52.532Z,13.20
2022-09-17T05:30:20.557Z,13.00
2022-09-17T05:32:48.652Z,13.00
2022-09-17T05:35:16.544Z,12.90
2022-09-17T05:37:44.399Z,12.90
2022-09-17T05:40:13.707Z,12.80
2022-09-17T05:42:41.567Z,12.80
2022-09-17T05:45:10.135Z,12.70
2022-09-17T05:47:38.012Z,12.70
2022-09-17T05:50:06.563Z,12.60
2022-09-17T05:52:34.449Z,12.50
2022-09-17T05:55:02.279Z,12.60
2022-09-17T05:57:31.611Z,12.70
2022-09-17T05:59:59.470Z,12.60
2022-09-17T06:02:27.296Z,12.70
2022-09-17T06:04:55.305Z,12.70
2022-09-17T06:07:23.144Z,12.80
2022-09-17T06:09:50.999Z,12.80
2022-09-17T06:12:18.863Z,12.90
2022-09-17T06:14:48.061Z,13.00
2022-09-17T06:17:19.100Z,13.00
2022-09-17T06:19:49.991Z,13.10
2022-09-17T06:22:19.671Z,13.30
2022-09-17T06:24:47.604Z,13.30
2022-09-17T06:27:15.703Z,13.20
2022-09-17T06:29:43.587Z,13.30
2022-09-17T06:32:15.495Z,13.30
2022-09-17T06:34:43.395Z,13.30
2022-09-17T06:37:11.237Z,13.30
2022-09-17T06:39:40.003Z,13.40
2022-09-17T06:42:08.294Z,13.40
2022-09-17T06:44:36.135Z,13.40
2022-09-17T06:47:03.982Z,13.50
2022-09-17T06:49:33.185Z,13.50
2022-09-17T06:52:01.640Z,13.40
2022-09-17T06:54:29.471Z,13.30
2022-09-17T06:56:57.310Z,13.30
2022-09-17T06:59:25.326Z,13.30
2022-09-17T07:01:53.285Z,13.30
2022-09-17T07:04:21.155Z,13.40
2022-09-17T07:06:50.358Z,13.30
2022-09-17T07:09:18.180Z,13.30
2022-09-17T07:11:46.036Z,13.30
2022-09-17T07:14:13.888Z,13.40
2022-09-17T07:16:41.705Z,13.50
2022-09-17T07:19:11.183Z,13.60
2022-09-17T07:21:39.128Z,13.70
2022-09-17T07:24:08.603Z,13.70
2022-09-17T07:26:36.485Z,13.80
2022-09-17T07:29:04.352Z,13.80
2022-09-17T07:31:32.322Z,13.80
2022-09-17T07:34:01.459Z,13.80
2022-09-17T07:36:29.258Z,13.80
2022-09-17T07:38:57.035Z,13.80
2022-09-17T07:41:26.190Z,13.90
2022-09-17T07:43:55.358Z,14.00
2022-09-17T07:46:23.560Z,14.10
2022-09-17T07:48:52.619Z,14.20
2022-09-17T07:51:22.839Z,14.30
2022-09-17T07:53:52.365Z,14.50
2022-09-17T07:56:20.323Z,14.50
2022-09-17T07:58:49.792Z,14.50
2022-09-17T08:01:18.728Z,14.60
2022-09-17T08:03:50.554Z,14.60
2022-09-17T08:06:20.686Z,14.60
2022-09-17T08:08:48.978Z,14.70
2022-09-17T08:11:38.037Z,14.80
2022-09-17T08:14:08.239Z,14.90
2022-09-17T08:16:36.096Z,15.00
2022-09-17T08:19:04.024Z,15.10
2022-09-17T08:21:31.870Z,15.30
2022-09-17T08:23:59.992Z,15.40
2022-09-17T08:26:27.893Z,15.60
2022-09-17T08:28:56.993Z,15.80
2022-09-17T08:31:28.329Z,16.00
2022-09-17T08:33:56.208Z,16.10
2022-09-17T08:36:26.053Z,16.10
2022-09-17T08:38:54.842Z,16.30
2022-09-17T08:41:28.247Z,16.40
2022-09-17T08:44:07.310Z,16.30
2022-09-17T08:46:46.990Z,16.30
2022-09-17T08:49:25.172Z,16.30
2022-09-17T08:52:16.876Z,16.30
2022-09-17T08:54:53.091Z,16.50
2022-09-17T08:57:27.253Z,16.50
2022-09-17T09:00:02.796Z,16.40
2022-09-17T09:02:45.060Z,16.50
2022-09-17T09:05:16.524Z,16.70
2022-09-17T09:07:49.258Z,17.00
2022-09-17T09:10:23.165Z,17.10
2022-09-17T09:12:52.783Z,17.30
2022-09-17T09:15:30.334Z,17.50
2022-09-17T09:18:06.255Z,17.60
2022-09-17T09:20:45.098Z,17.50
2022-09-17T09:23:19.867Z,17.40
2022-09-17T09:25:56.223Z,17.40
2022-09-17T09:28:43.497Z,17.60
2022-09-17T09:31:24.536Z,17.40
2022-09-17T09:33:54.095Z,17.30
2022-09-17T09:36:22.526Z,17.50
2022-09-17T09:38:57.652Z,17.70
2022-09-17T09:41:32.628Z,17.60
2022-09-17T09:44:05.321Z,17.60
2022-09-17T09:46:48.005Z,17.70
2022-09-17T09:49:27.381Z,17.80
2022-09-17T09:52:05.059Z,18.00
2022-09-17T09:54:45.377Z,18.10
2022-09-17T09:57:16.071Z,18.20
2022-09-17T09:59:43.915Z,18.10
2022-09-17T10:02:12.537Z,18.10
2022-09-17T10:04:41.859Z,17.90
2022-09-17T10:07:11.222Z,17.80
2022-09-17T10:09:40.344Z,17.80
2022-09-17T10:12:17.911Z,17.70
2022-09-17T10:14:47.319Z,17.80
2022-09-17T10:17:21.362Z,18.00
2022-09-17T10:20:16.485Z,18.20
2022-09-17T10:22:48.670Z,18.30
2022-09-17T10:25:31.532Z,18.40
2022-09-17T10:28:04.304Z,18.50
2022-09-17T10:30:32.894Z,18.60
2022-09-17T10:33:24.800Z,18.60
2022-09-17T10:36:05.873Z,18.50
2022-09-17T10:38:36.315Z,18.40
2022-09-17T10:41:11.549Z,18.40
2022-09-17T10:43:39.433Z,18.10
2022-09-17T10:46:11.390Z,18.10
2022-09-17T10:48:43.909Z,18.00
2022-09-17T10:51:23.218Z,18.20
2022-09-17T10:54:16.940Z,18.30
2022-09-17T10:56:50.684Z,18.40
2022-09-17T10:59:44.210Z,18.40
2022-09-17T11:02:42.569Z,18.30
2022-09-17T11:05:35.374Z,18.20
2022-09-17T11:08:13.839Z,18.00
2022-09-17T11:10:49.563Z,18.10
2022-09-17T11:13:25.695Z,18.30
2022-09-17T11:16:07.612Z,18.60
2022-09-17T11:18:42.101Z,18.90
2022-09-17T11:21:29.536Z,19.40
2022-09-17T11:24:30.214Z,19.80
2022-09-17T11:27:07.689Z,19.90
2022-09-17T11:29:53.030Z,19.70
2022-09-17T11:32:40.032Z,19.50
2022-09-17T11:35:13.036Z,19.40
2022-09-17T11:37:48.922Z,19.30
2022-09-17T11:40:23.406Z,19.10
2022-09-17T11:42:56.043Z,19.00
2022-09-17T11:45:28.427Z,19.40
2022-09-17T11:48:01.067Z,19.40
2022-09-17T11:50:32.169Z,19.20
2022-09-17T11:53:09.174Z,19.00
2022-09-17T11:55:43.587Z,18.70
2022-09-17T11:58:16.186Z,18.30
2022-09-17T12:00:52.214Z,18.00
2022-09-17T12:03:27.158Z,18.50
2022-09-17T12:05:58.013Z,20.90
2022-09-17T12:08:30.242Z,23.40
2022-09-17T12:11:08.320Z,24.50
2022-09-17T12:13:41.266Z,23.90
2022-09-17T12:16:17.052Z,23.30
2022-09-17T12:19:01.736Z,22.40
2022-09-17T12:21:34.651Z,21.70
2022-09-17T12:24:10.904Z,21.20
2022-09-17T12:26:59.413Z,21.00
2022-09-17T12:29:40.629Z,21.20
2022-09-17T12:32:29.537Z,21.10
2022-09-17T12:35:04.350Z,21.30
2022-09-17T12:37:39.707Z,21.30
2022-09-17T12:40:27.293Z,21.60
2022-09-17T12:43:21.091Z,21.60
2022-09-17T12:46:03.887Z,21.40
2022-09-17T12:48:54.910Z,21.00
2022-09-17T12:51:39.111Z,20.50
2022-09-17T12:54:17.755Z,19.80
2022-09-17T12:56:57.423Z,19.30
2022-09-17T12:59:31.453Z,18.90
2022-09-17T13:02:03.450Z,18.40
2022-09-17T13:05:21.983Z,18.10
2022-09-17T13:08:24.103Z,18.00
2022-09-17T13:11:13.960Z,17.70
2022-09-17T13:13:51.158Z,17.70
2022-09-17T13:16:26.848Z,18.90
2022-09-17T13:19:17.293Z,20.80
2022-09-17T13:21:54.498Z,23.10
2022-09-17T13:24:25.016Z,25.50
2022-09-17T13:26:54.560Z,26.90
2022-09-17T13:30:03.108Z,27.90
2022-09-17T13:32:48.922Z,29.00
2022-09-17T13:35:51.699Z,30.20
2022-09-17T13:38:23.927Z,31.20
2022-09-17T13:40:53.142Z,32.00
2022-09-17T13:43:26.390Z,33.10
2022-09-17T13:46:25.313Z,34.20
2022-09-17T13:48:59.382Z,35.10
2022-09-17T13:51:51.903Z,35.70
2022-09-17T13:54:22.420Z,36.30
2022-09-17T13:57:08.432Z,37.00
2022-09-17T13:59:37.369Z,36.90
2022-09-17T14:02:38.426Z,37.30
2022-09-17T14:05:33.541Z,37.40
2022-09-17T14:08:27.741Z,36.90
2022-09-17T14:10:57.982Z,36.90
2022-09-17T14:13:29.071Z,36.50
2022-09-17T14:16:03.331Z,34.70
2022-09-17T14:18:46.062Z,33.00
2022-09-17T14:21:26.755Z,30.80
2022-09-17T14:23:58.531Z,28.90
2022-09-17T14:26:49.726Z,26.00
2022-09-17T14:29:31.187Z,23.40
2022-09-17T14:31:59.232Z,22.10
2022-09-17T14:34:28.198Z,21.30
2022-09-17T14:36:57.831Z,20.90
2022-09-17T14:39:29.970Z,21.10
2022-09-17T14:41:57.833Z,21.10
2022-09-17T14:44:32.747Z,21.30
2022-09-17T14:47:04.322Z,21.60
2022-09-17T14:49:34.521Z,21.60
2022-09-17T14:52:18.961Z,21.70
2022-09-17T14:54:46.790Z,21.30
2022-09-17T14:57:30.050Z,20.70
2022-09-17T14:59:58.877Z,19.60
2022-09-17T15:02:34.386Z,19.40
2022-09-17T15:05:04.122Z,19.40
2022-09-17T15:07:33.254Z,19.70
2022-09-17T15:10:08.893Z,19.80
2022-09-17T15:12:39.137Z,20.00
2022-09-17T15:15:08.060Z,20.00
2022-09-17T15:17:36.421Z,19.90
2022-09-17T15:20:07.854Z,19.90
2022-09-17T15:22:41.327Z,19.80
2022-09-17T15:25:15.546Z,19.80
2022-09-17T15:27:46.017Z,19.80
2022-09-17T15:30:17.858Z,19.60
2022-09-17T15:32:51.402Z,19.40
2022-09-17T15:35:28.167Z,19.40
2022-09-17T15:40:47.174Z,19.20
2022-09-17T15:43:19.489Z,19.20
2022-09-17T15:45:47.311Z,19.00
2022-09-17T15:48:34.146Z,19.00
2022-09-17T15:51:04.335Z,18.90
2022-09-17T15:53:34.899Z,18.90
2022-09-17T15:56:08.347Z,18.80
2022-09-17T15:58:52.121Z,18.70
2022-09-17T16:01:56.188Z,18.50
2022-09-17T16:04:32.747Z,18.30
2022-09-17T16:07:03.591Z,18.30
2022-09-17T16:09:41.326Z,18.30
2022-09-17T16:12:11.763Z,18.20
2022-09-17T16:14:39.683Z,18.00
2022-09-17T16:17:38.209Z,18.00
2022-09-17T16:20:15.126Z,18.00
2022-09-17T16:22:43.017Z,17.90
2022-09-17T16:25:12.649Z,17.80
2022-09-17T16:27:46.676Z,17.80
2022-09-17T16:30:17.546Z,17.80
2022-09-17T16:32:45.496Z,17.80
2022-09-17T16:35:17.277Z,17.70
2022-09-17T16:37:48.722Z,17.60
2022-09-17T16:40:21.353Z,17.60
2022-09-17T16:42:50.111Z,17.50
2022-09-17T16:45:17.967Z,17.50
2022-09-17T16:47:46.103Z,17.50
2022-09-17T16:50:15.769Z,17.30
2022-09-17T16:52:44.820Z,17.20
2022-09-17T16:55:15.033Z,17.20
2022-09-17T16:57:44.604Z,17.00
2022-09-17T17:00:16.447Z,17.00
2022-09-17T17:02:44.843Z,16.90
2022-09-17T17:05:12.823Z,16.80
2022-09-17T17:07:40.718Z,16.90
2022-09-17T17:10:09.898Z,16.80
2022-09-17T17:12:38.516Z,16.80
2022-09-17T17:15:09.338Z,16.80
2022-09-17T17:17:37.893Z,16.70
2022-09-17T17:20:07.899Z,16.80
2022-09-17T17:22:36.859Z,16.70
2022-09-17T17:25:05.495Z,16.70
2022-09-17T17:27:33.570Z,16.60
2022-09-17T17:30:04.419Z,16.60
2022-09-17T17:32:33.695Z,16.60
2022-09-17T17:35:01.586Z,16.50
2022-09-17T17:37:29.477Z,16.50
2022-09-17T17:39:58.138Z,16.40
2022-09-17T17:42:25.999Z,16.40
2022-09-17T17:44:55.485Z,16.30
2022-09-17T17:47:23.300Z,16.20
2022-09-17T17:49:52.475Z,16.20
2022-09-17T17:52:20.312Z,16.10
2022-09-17T17:54:48.545Z,16.20
2022-09-17T17:57:16.452Z,16.10
2022-09-17T17:59:44.319Z,16.10
2022-09-17T18:02:12.674Z,16.10
2022-09-17T18:04:40.615Z,16.10
2022-09-17T18:07:09.785Z,16.10
2022-09-17T18:09:37.645Z,16.10
2022-09-17T18:12:05.973Z,16.00
2022-09-17T18:14:33.907Z,16.00
2022-09-17T18:17:01.677Z,16.00
2022-09-17T18:19:30.496Z,16.00
2022-09-17T18:21:58.450Z,16.00
2022-09-17T18:24:30.283Z,15.90
2022-09-17T18:26:58.109Z,15.90
2022-09-17T18:29:27.745Z,15.90
2022-09-17T18:31:58.291Z,15.90
2022-09-17T18:34:26.118Z,15.80
2022-09-17T18:36:54.079Z,15.80
2022-09-17T18:42:14.342Z,15.70
2022-09-17T18:44:42.210Z,15.70
2022-09-17T18:47:17.023Z,15.70
2022-09-17T18:49:45.013Z,15.70
2022-09-17T18:52:12.873Z,15.70
2022-09-17T18:54:40.691Z,15.70
2022-09-17T18:57:08.524Z,15.70
2022-09-17T18:59:37.736Z,15.70
2022-09-17T19:02:06.604Z,15.70
2022-09-17T19:04:34.518Z,15.70
2022-09-17T19:07:05.171Z,15.70
2022-09-17T19:09:33.063Z,15.70
2022-09-17T19:12:01.018Z,15.70
2022-09-17T19:14:28.841Z,15.70
2022-09-17T19:16:58.030Z,15.70
2022-09-17T19:19:25.877Z,15.60
2022-09-17T19:21:53.706Z,15.60
2022-09-17T19:24:21.622Z,15.50
2022-09-17T19:26:51.212Z,15.50
2022-09-17T19:29:19.095Z,15.50
2022-09-17T19:31:47.049Z,15.50
2022-09-17T19:34:16.341Z,15.50
2022-09-17T19:36:44.213Z,15.50
2022-09-17T19:39:12.295Z,15.50
2022-09-17T19:41:40.141Z,15.40
2022-09-17T19:44:07.987Z,15.20
2022-09-17T19:46:37.238Z,15.20
2022-09-17T19:49:05.314Z,15.20
2022-09-17T19:51:42.482Z,15.10
2022-09-17T19:54:11.414Z,15.10
2022-09-17T19:56:39.237Z,15.10
2022-09-17T19:59:07.165Z,15.10
2022-09-17T20:01:49.743Z,15.10
2022-09-17T20:04:18.040Z,15.10
2022-09-17T20:06:49.615Z,15.10
2022-09-17T20:09:17.558Z,15.10
2022-09-17T20:11:45.428Z,15.10
2022-09-17T20:14:13.657Z,15.20
2022-09-17T20:16:42.358Z,15.20
2022-09-17T20:19:16.235Z,15.20
2022-09-17T20:21:44.185Z,15.20
2022-09-17T20:24:13.555Z,15.10
2022-09-17T20:26:41.406Z,15.10
2022-09-17T20:29:09.258Z,15.20
2022-09-17T20:31:37.153Z,15.20
2022-09-17T20:34:05.294Z,15.20
2022-09-17T20:36:35.912Z,15.10
2022-09-17T20:39:17.987Z,15.20
2022-09-17T20:41:50.547Z,15.20
2022-09-17T20:44:18.720Z,15.20
2022-09-17T20:46:46.577Z,15.10
2022-09-17T20:49:14.469Z,15.10
2022-09-17T20:51:42.324Z,15.20
2022-09-17T20:54:11.908Z,15.20
2022-09-17T20:56:39.779Z,15.20
2022-09-17T20:59:15.682Z,15.20
2022-09-17T21:01:44.812Z,15.20
2022-09-17T21:04:16.867Z,15.30
2022-09-17T21:06:45.846Z,15.20
2022-09-17T21:09:16.547Z,15.30
2022-09-17T21:11:45.142Z,15.30
2022-09-17T21:14:15.706Z,15.30
2022-09-17T21:16:44.229Z,15.30
2022-09-17T21:19:15.722Z,15.30
2022-09-17T21:21:43.626Z,15.30
2022-09-17T21:24:18.694Z,15.30
2022-09-17T21:26:47.407Z,15.30
2022-09-17T21:29:30.418Z,15.30
2022-09-17T21:31:58.330Z,15.40
2022-09-17T21:34:26.207Z,15.30
2022-09-17T21:36:54.021Z,15.30
2022-09-17T21:39:21.858Z,15.30
2022-09-17T21:41:50.228Z,15.30
2022-09-17T21:44:19.389Z,15.30
2022-09-17T21:46:48.502Z,15.30
2022-09-17T21:49:26.238Z,15.30
2022-09-17T21:51:54.168Z,15.30
2022-09-17T21:54:21.989Z,15.30
2022-09-17T21:56:52.247Z,15.30
2022-09-17T21:59:21.390Z,15.30
2022-09-17T22:01:50.760Z,15.30
2022-09-17T22:04:20.607Z,15.30
2022-09-17T22:06:55.681Z,15.20
2022-09-17T22:09:25.651Z,15.20
2022-09-17T22:11:54.770Z,15.20
2022-09-17T22:14:25.491Z,15.10
2022-09-17T22:16:55.279Z,15.10
2022-09-17T22:19:24.945Z,15.10
2022-09-17T22:21:54.997Z,15.10
2022-09-17T22:24:23.675Z,15.10
2022-09-17T22:26:57.411Z,15.00
2022-09-17T22:29:31.344Z,15.00
2022-09-17T22:31:59.170Z,15.00
2022-09-17T22:34:27.019Z,15.00
2022-09-17T22:36:54.883Z,15.00
2022-09-17T22:39:23.404Z,15.00
2022-09-17T22:41:51.623Z,14.90
2022-09-17T22:44:20.911Z,14.90
2022-09-17T22:46:51.554Z,14.90
2022-09-17T22:49:20.311Z,14.90
2022-09-17T22:51:48.467Z,14.90
2022-09-17T22:54:18.290Z,14.90
2022-09-17T22:56:46.748Z,14.90
2022-09-17T22:59:14.697Z,14.90
2022-09-17T23:01:43.018Z,14.80
2022-09-17T23:04:12.262Z,14.80
2022-09-17T23:06:42.419Z,14.80
2022-09-17T23:09:12.523Z,14.80
2022-09-17T23:11:41.158Z,14.70
2022-09-17T23:14:12.542Z,14.70
2022-09-17T23:16:42.040Z,14.70
2022-09-17T23:19:10.395Z,14.60
2022-09-17T23:21:39.965Z,14.50
2022-09-17T23:24:08.316Z,14.50
2022-09-17T23:26:36.194Z,14.50
2022-09-17T23:29:05.492Z,14.50
2022-09-17T23:31:35.183Z,14.50
2022-09-17T23:34:04.375Z,14.50
2022-09-17T23:36:34.868Z,14.50
2022-09-17T23:39:06.282Z,14.40
2022-09-17T23:41:36.758Z,14.40
2022-09-17T23:44:12.147Z,14.40
2022-09-17T23:46:42.898Z,14.40
2022-09-17T23:49:13.043Z,14.40
2022-09-17T23:51:41.116Z,14.30
2022-09-17T23:54:10.323Z,14.20
2022-09-17T23:56:38.262Z,14.20
2022-09-17T23:59:07.237Z,14.20
